Time;durP1;ratioP1;P1;durP2;ratioP2;P2;SDS_P1;SDS_P2;PMS_P1;PMS_P2;Temp;Humidity;BMP_temperature;BMP_pressure;BME280_temperature;BME280_humidity;BME280_pressure;Samples;Min_cycle;Max_cycle;Signal;HPM_P1;HPM_P2
2021/06/13 00:00:43;;;;;;;6.30;2.87;;;;;;;;;;5073042;28;20865;-73
2021/06/13 00:03:10;;;;;;;4.47;2.97;;;;;;;;;;5072196;28;20470;-73
2021/06/13 00:05:36;;;;;;;3.93;2.10;;;;;;;;;;5064605;28;20504;-73
2021/06/13 00:08:03;;;;;;;2.93;2.20;;;;;;;;;;5072366;28;20451;-73
2021/06/13 00:10:30;;;;;;;4.20;2.53;;;;;;;;;;5072840;28;20447;-73
2021/06/13 00:12:57;;;;;;;3.33;2.33;;;;;;;;;;5072343;28;20496;-73
2021/06/13 00:15:25;;;;;;;7.13;3.00;;;;;;;;;;5072257;28;20446;-73
2021/06/13 00:17:52;;;;;;;5.17;2.73;;;;;;;;;;5072936;28;20449;-72
2021/06/13 00:20:21;;;;;;;4.60;2.57;;;;;;;;;;5072925;28;20477;-73
2021/06/13 00:22:48;;;;;;;4.13;2.40;;;;;;;;;;5072124;28;20901;-72
2021/06/13 00:25:15;;;;;;;5.70;2.97;;;;;;;;;;5071563;28;20544;-73
2021/06/13 00:27:41;;;;;;;5.87;2.70;;;;;;;;;;5072889;28;20457;-73
2021/06/13 00:30:09;;;;;;;10.30;3.07;;;;;;;;;;5072643;28;20451;-73
2021/06/13 00:32:37;;;;;;;3.47;2.13;;;;;;;;;;5072257;28;20468;-73
2021/06/13 00:35:04;;;;;;;5.70;2.90;;;;;;;;;;5072132;28;20451;-72
2021/06/13 00:37:31;;;;;;;5.07;2.50;;;;;;;;;;5071508;28;20443;-72
2021/06/13 00:39:57;;;;;;;4.20;2.33;;;;;;;;;;5072464;28;20950;-72
2021/06/13 00:42:24;;;;;;;5.43;3.13;;;;;;;;;;5073014;28;20476;-73
2021/06/13 00:44:50;;;;;;;3.80;2.33;;;;;;;;;;5072590;28;20483;-73
2021/06/13 00:47:17;;;;;;;4.97;2.60;;;;;;;;;;5071536;28;20443;-73
2021/06/13 00:49:45;;;;;;;5.47;2.70;;;;;;;;;;5072930;28;20472;-73
2021/06/13 00:52:12;;;;;;;5.33;2.40;;;;;;;;;;5073323;28;20477;-73
2021/06/13 00:54:39;;;;;;;5.07;2.80;;;;;;;;;;5064396;28;20447;-73
2021/06/13 00:57:06;;;;;;;5.23;2.20;;;;;;;;;;5052062;28;20457;-73
2021/06/13 00:59:32;;;;;;;5.40;2.73;;;;;;;;;;5064389;28;20454;-72
2021/06/13 01:01:59;;;;;;;3.60;2.43;;;;;;;;;;5072615;28;21000;-73
2021/06/13 01:04:26;;;;;;;3.47;2.43;;;;;;;;;;5072293;28;20482;-72
2021/06/13 01:06:56;;;;;;;4.37;2.67;;;;;;;;;;5071852;28;20454;-73
2021/06/13 01:09:24;;;;;;;3.30;2.20;;;;;;;;;;5071884;28;20981;-72
2021/06/13 01:11:54;;;;;;;3.73;2.37;;;;;;;;;;5072363;28;20841;-73
2021/06/13 01:14:24;;;;;;;5.70;2.90;;;;;;;;;;5071329;28;20447;-73
2021/06/13 01:16:53;;;;;;;4.33;2.33;;;;;;;;;;5071133;28;20443;-73
2021/06/13 01:19:30;;;;;;;8.87;3.33;;;;;;;;;;5071775;28;20794;-73
2021/06/13 01:22:02;;;;;;;6.57;3.30;;;;;;;;;;5071626;28;20478;-73
2021/06/13 01:24:32;;;;;;;9.33;3.00;;;;;;;;;;5072104;28;20489;-73
2021/06/13 01:27:04;;;;;;;5.30;2.10;;;;;;;;;;5071049;28;20837;-73
2021/06/13 01:29:33;;;;;;;5.27;3.27;;;;;;;;;;5072127;28;20447;-73
2021/06/13 01:32:01;;;;;;;4.63;2.87;;;;;;;;;;5071621;28;20483;-73
2021/06/13 01:34:29;;;;;;;6.17;2.70;;;;;;;;;;5072439;28;20455;-73
2021/06/13 01:36:57;;;;;;;6.10;2.57;;;;;;;;;;5070690;28;20446;-73
2021/06/13 01:39:27;;;;;;;7.13;2.93;;;;;;;;;;5071972;28;20451;-73
2021/06/13 01:41:55;;;;;;;5.53;2.27;;;;;;;;;;5071471;28;20477;-73
2021/06/13 01:44:21;;;;;;;4.63;2.60;;;;;;;;;;5072483;28;20540;-73
2021/06/13 01:46:51;;;;;;;4.57;2.40;;;;;;;;;;5071476;28;20451;-73
2021/06/13 01:49:19;;;;;;;4.27;2.20;;;;;;;;;;5076085;28;20807;-73
2021/06/13 01:51:46;;;;;;;3.60;2.30;;;;;;;;;;5075454;28;20469;-73
2021/06/13 01:54:13;;;;;;;4.07;2.00;;;;;;;;;;5075521;28;20669;-73
2021/06/13 01:56:44;;;;;;;3.83;2.47;;;;;;;;;;5072565;28;20461;-73
2021/06/13 01:59:10;;;;;;;4.60;2.60;;;;;;;;;;5075630;28;20984;-73
2021/06/13 02:01:37;;;;;;;5.20;2.43;;;;;;;;;;5076853;28;20470;-73
2021/06/13 02:04:06;;;;;;;4.77;2.47;;;;;;;;;;5075723;28;20446;-73
2021/06/13 02:06:35;;;;;;;4.30;2.30;;;;;;;;;;5077058;28;20455;-73
2021/06/13 02:09:02;;;;;;;4.20;2.30;;;;;;;;;;5085521;28;20468;-73
2021/06/13 02:11:29;;;;;;;3.10;2.33;;;;;;;;;;5088605;28;20900;-73
2021/06/13 02:13:58;;;;;;;4.90;2.23;;;;;;;;;;5087082;28;20451;-73
2021/06/13 02:16:24;;;;;;;4.50;2.23;;;;;;;;;;5075124;28;20443;-72
2021/06/13 02:18:51;;;;;;;4.07;2.83;;;;;;;;;;5076126;28;20852;-72
2021/06/13 02:21:20;;;;;;;4.30;2.03;;;;;;;;;;5074973;28;20509;-72
2021/06/13 02:23:46;;;;;;;5.90;2.50;;;;;;;;;;5075826;28;20435;-72
2021/06/13 02:26:14;;;;;;;3.80;2.27;;;;;;;;;;5074296;28;20483;-72
2021/06/13 02:28:42;;;;;;;3.90;2.47;;;;;;;;;;5075604;28;20451;-72
2021/06/13 02:31:09;;;;;;;4.97;2.63;;;;;;;;;;5074577;28;20451;-73
2021/06/13 02:33:39;;;;;;;4.40;2.30;;;;;;;;;;5075665;28;20447;-73
2021/06/13 02:36:06;;;;;;;4.10;2.63;;;;;;;;;;5073781;28;20451;-73
2021/06/13 02:38:34;;;;;;;3.40;2.50;;;;;;;;;;5075066;28;20443;-73
2021/06/13 02:41:01;;;;;;;6.90;2.67;;;;;;;;;;5075966;28;20504;-73
2021/06/13 02:43:27;;;;;;;3.43;2.23;;;;;;;;;;5075123;28;20455;-73
2021/06/13 02:45:54;;;;;;;5.70;2.60;;;;;;;;;;5074429;28;20478;-73
2021/06/13 02:48:21;;;;;;;5.00;2.60;;;;;;;;;;5075531;28;20442;-73
2021/06/13 02:50:47;;;;;;;4.23;2.47;;;;;;;;;;5074616;28;20446;-73
2021/06/13 02:53:19;;;;;;;5.20;2.33;;;;;;;;;;5074125;28;20475;-73
2021/06/13 02:55:51;;;;;;;4.83;2.70;;;;;;;;;;5074207;28;21023;-73
2021/06/13 02:58:22;;;;;;;6.50;2.73;;;;;;;;;;5074671;28;20433;-73
2021/06/13 03:00:51;;;;;;;4.60;2.57;;;;;;;;;;5074048;28;20580;-73
2021/06/13 03:03:19;;;;;;;4.50;2.57;;;;;;;;;;5074636;28;20803;-73
2021/06/13 03:05:46;;;;;;;3.90;2.13;;;;;;;;;;5073914;28;20487;-72
2021/06/13 03:08:14;;;;;;;6.90;2.40;;;;;;;;;;5074624;28;20498;-72
2021/06/13 03:10:41;;;;;;;5.33;2.90;;;;;;;;;;5074337;28;21030;-72
2021/06/13 03:13:09;;;;;;;4.70;2.30;;;;;;;;;;5075106;28;20527;-72
2021/06/13 03:15:36;;;;;;;5.80;2.30;;;;;;;;;;5072912;28;20536;-72
2021/06/13 03:18:03;;;;;;;4.00;2.80;;;;;;;;;;5074861;28;20453;-72
2021/06/13 03:20:29;;;;;;;5.20;2.67;;;;;;;;;;5074525;28;20946;-73
2021/06/13 03:22:57;;;;;;;5.60;2.87;;;;;;;;;;5074081;28;20486;-73
2021/06/13 03:25:24;;;;;;;6.30;3.30;;;;;;;;;;5072239;28;20483;-73
2021/06/13 03:27:52;;;;;;;5.63;2.60;;;;;;;;;;5074334;28;20501;-73
2021/06/13 03:30:20;;;;;;;6.37;2.80;;;;;;;;;;5073377;28;20521;-73
2021/06/13 03:32:47;;;;;;;6.60;3.13;;;;;;;;;;5074450;28;20466;-73
2021/06/13 03:35:14;;;;;;;7.57;3.00;;;;;;;;;;5073619;28;20508;-73
2021/06/13 03:37:42;;;;;;;8.90;3.10;;;;;;;;;;5073822;28;20604;-73
2021/06/13 03:40:09;;;;;;;6.20;2.50;;;;;;;;;;5073804;28;20458;-73
2021/06/13 03:42:37;;;;;;;5.20;2.70;;;;;;;;;;5074133;28;20473;-73
2021/06/13 03:45:05;;;;;;;6.67;2.63;;;;;;;;;;5073676;28;20602;-73
2021/06/13 03:47:34;;;;;;;6.67;3.27;;;;;;;;;;5073339;28;20457;-73
2021/06/13 03:50:02;;;;;;;3.80;2.27;;;;;;;;;;5072996;28;20447;-73
2021/06/13 03:52:29;;;;;;;7.73;2.50;;;;;;;;;;5073711;28;20521;-73
2021/06/13 03:54:57;;;;;;;4.97;2.40;;;;;;;;;;5072996;28;20443;-73
2021/06/13 03:57:24;;;;;;;5.23;2.70;;;;;;;;;;5072848;28;20448;-73
2021/06/13 03:59:52;;;;;;;4.03;2.33;;;;;;;;;;5072750;28;20455;-73
2021/06/13 04:02:20;;;;;;;4.63;2.10;;;;;;;;;;5073477;28;20982;-73
2021/06/13 04:04:51;;;;;;;6.60;3.00;;;;;;;;;;5072995;28;20504;-73
2021/06/13 04:07:19;;;;;;;5.10;2.37;;;;;;;;;;5072951;28;20493;-74
2021/06/13 04:09:46;;;;;;;5.03;2.93;;;;;;;;;;5072423;28;20469;-73
2021/06/13 04:12:15;;;;;;;4.37;2.67;;;;;;;;;;5072531;28;20471;-73
2021/06/13 04:14:44;;;;;;;4.20;2.90;;;;;;;;;;5072331;28;20461;-74
2021/06/13 04:17:12;;;;;;;7.07;3.23;;;;;;;;;;5072008;28;21300;-73
2021/06/13 04:19:39;;;;;;;4.27;2.80;;;;;;;;;;5072124;28;20447;-73
2021/06/13 04:22:10;;;;;;;4.80;3.00;;;;;;;;;;5093751;22;20499;-65
2021/06/13 04:24:37;;;;;;;5.97;2.57;;;;;;;;;;5061809;28;20451;-67
2021/06/13 04:27:05;;;;;;;5.33;2.70;;;;;;;;;;5071022;28;20443;-65
2021/06/13 04:29:32;;;;;;;5.10;2.90;;;;;;;;;;5070824;28;20811;-65
2021/06/13 04:31:59;;;;;;;6.40;2.80;;;;;;;;;;5067267;28;20472;-64
2021/06/13 04:34:26;;;;;;;5.37;2.83;;;;;;;;;;5051168;28;20452;-65
2021/06/13 04:36:53;;;;;;;5.30;2.50;;;;;;;;;;5050025;28;20440;-66
2021/06/13 04:39:22;;;;;;;4.50;2.60;;;;;;;;;;5051107;28;20827;-65
2021/06/13 04:41:49;;;;;;;4.53;3.07;;;;;;;;;;5051285;28;20938;-65
2021/06/13 04:44:16;;;;;;;4.50;2.40;;;;;;;;;;5050733;28;20459;-65
2021/06/13 04:46:43;;;;;;;5.80;3.00;;;;;;;;;;5050766;28;20486;-65
2021/06/13 04:49:10;;;;;;;5.00;2.70;;;;;;;;;;5050982;28;20474;-65
2021/06/13 04:51:37;;;;;;;7.13;2.80;;;;;;;;;;5051151;28;20448;-65
2021/06/13 04:54:19;;;;;;;4.87;2.87;;;;;;;;;;5051272;28;20460;-64
2021/06/13 04:56:52;;;;;;;4.53;2.87;;;;;;;;;;5050520;28;20444;-64
2021/06/13 04:59:19;;;;;;;6.27;3.20;;;;;;;;;;5050997;28;20448;-65
2021/06/13 05:01:46;;;;;;;7.47;2.77;;;;;;;;;;5051334;28;20448;-66
2021/06/13 05:04:13;;;;;;;6.70;2.87;;;;;;;;;;5050853;28;20452;-65
2021/06/13 05:06:43;;;;;;;6.27;3.03;;;;;;;;;;5050805;28;20483;-65
2021/06/13 05:09:10;;;;;;;4.00;3.27;;;;;;;;;;5050732;28;20452;-65
2021/06/13 05:11:38;;;;;;;4.90;2.70;;;;;;;;;;5051430;28;20448;-64
2021/06/13 05:14:07;;;;;;;4.60;2.87;;;;;;;;;;5050706;28;20447;-65
2021/06/13 05:16:34;;;;;;;4.20;2.50;;;;;;;;;;5050349;28;20458;-64
2021/06/13 05:19:01;;;;;;;4.67;3.20;;;;;;;;;;5051070;28;20452;-65
2021/06/13 05:21:28;;;;;;;4.80;2.63;;;;;;;;;;5050925;28;20456;-65
2021/06/13 05:23:56;;;;;;;7.37;3.60;;;;;;;;;;5054421;28;20463;-64
2021/06/13 05:26:23;;;;;;;5.83;3.13;;;;;;;;;;5054127;28;20487;-65
2021/06/13 05:28:50;;;;;;;4.63;3.03;;;;;;;;;;5054945;28;20454;-65
2021/06/13 05:31:18;;;;;;;5.00;2.37;;;;;;;;;;5054526;28;20455;-65
2021/06/13 05:33:45;;;;;;;5.33;3.10;;;;;;;;;;5055184;28;20467;-67
2021/06/13 05:36:12;;;;;;;5.93;2.73;;;;;;;;;;5054170;28;20961;-64
2021/06/13 05:38:41;;;;;;;5.00;3.30;;;;;;;;;;5055098;28;20452;-64
2021/06/13 05:41:08;;;;;;;4.57;3.17;;;;;;;;;;5055357;28;20530;-65
2021/06/13 05:43:35;;;;;;;8.10;3.40;;;;;;;;;;5054492;28;20471;-65
2021/06/13 05:46:03;;;;;;;6.87;3.03;;;;;;;;;;5053872;28;20505;-65
2021/06/13 05:48:32;;;;;;;7.50;3.50;;;;;;;;;;5054800;28;20495;-64
2021/06/13 05:50:59;;;;;;;7.13;3.33;;;;;;;;;;5055065;28;20452;-65
2021/06/13 05:53:26;;;;;;;5.70;3.00;;;;;;;;;;5054910;28;20467;-65
2021/06/13 05:55:54;;;;;;;5.70;3.33;;;;;;;;;;5058158;28;20539;-65
2021/06/13 05:58:21;;;;;;;6.07;3.57;;;;;;;;;;5059503;28;20451;-65
2021/06/13 06:00:48;;;;;;;6.80;3.57;;;;;;;;;;5062092;28;20446;-65
2021/06/13 06:03:15;;;;;;;5.13;3.23;;;;;;;;;;5060011;28;20475;-64
2021/06/13 06:05:44;;;;;;;5.90;3.00;;;;;;;;;;5062081;28;20479;-65
2021/06/13 06:08:11;;;;;;;6.10;3.20;;;;;;;;;;5065723;28;20458;-65
2021/06/13 06:10:38;;;;;;;5.07;3.30;;;;;;;;;;5057529;28;20942;-64
2021/06/13 06:13:06;;;;;;;7.43;3.97;;;;;;;;;;5055277;28;20477;-64
2021/06/13 06:15:33;;;;;;;8.60;3.63;;;;;;;;;;5055222;28;20927;-65
2021/06/13 06:18:00;;;;;;;4.40;3.20;;;;;;;;;;5055684;28;20454;-65
2021/06/13 06:20:28;;;;;;;5.30;3.70;;;;;;;;;;5055824;28;20957;-65
2021/06/13 06:22:57;;;;;;;6.17;3.20;;;;;;;;;;5054498;28;20483;-65
2021/06/13 06:25:24;;;;;;;7.13;3.70;;;;;;;;;;5052182;28;20514;-66
2021/06/13 06:27:52;;;;;;;6.20;3.43;;;;;;;;;;5051669;28;20471;-65
2021/06/13 06:30:20;;;;;;;9.60;3.90;;;;;;;;;;5037003;28;20441;-66
2021/06/13 06:32:47;;;;;;;4.27;3.20;;;;;;;;;;5060723;28;20482;-66
2021/06/13 06:35:15;;;;;;;6.47;3.20;;;;;;;;;;5066639;28;20455;-66
2021/06/13 06:37:42;;;;;;;7.17;4.00;;;;;;;;;;5064626;28;20478;-66
2021/06/13 06:40:12;;;;;;;6.70;3.50;;;;;;;;;;5063724;28;20454;-65
2021/06/13 06:42:39;;;;;;;6.33;3.70;;;;;;;;;;5064647;28;20495;-66
2021/06/13 06:45:07;;;;;;;5.83;4.00;;;;;;;;;;5063758;28;20455;-66
2021/06/13 06:47:34;;;;;;;4.83;3.07;;;;;;;;;;5045569;28;20484;-67
2021/06/13 06:50:02;;;;;;;5.43;2.90;;;;;;;;;;5048078;28;20443;-65
2021/06/13 06:52:29;;;;;;;5.07;3.70;;;;;;;;;;5051394;28;20499;-67
2021/06/13 06:54:58;;;;;;;5.07;2.97;;;;;;;;;;5052589;28;20951;-66
2021/06/13 06:57:27;;;;;;;6.90;3.43;;;;;;;;;;5053106;28;20448;-65
2021/06/13 06:59:54;;;;;;;7.10;3.20;;;;;;;;;;5050360;28;20511;-65
2021/06/13 07:02:21;;;;;;;6.37;3.03;;;;;;;;;;5055016;28;20467;-66
2021/06/13 07:04:48;;;;;;;3.60;3.00;;;;;;;;;;5052390;28;20455;-65
2021/06/13 07:07:15;;;;;;;5.47;3.67;;;;;;;;;;5052078;28;20483;-65
2021/06/13 07:09:42;;;;;;;4.03;3.00;;;;;;;;;;5053784;28;20476;-65
2021/06/13 07:12:10;;;;;;;6.73;2.90;;;;;;;;;;5052846;28;20841;-65
2021/06/13 07:14:38;;;;;;;4.57;2.60;;;;;;;;;;5052171;28;20462;-67
2021/06/13 07:17:06;;;;;;;7.30;3.77;;;;;;;;;;5052192;28;20443;-66
2021/06/13 07:19:33;;;;;;;6.43;3.30;;;;;;;;;;5052776;28;20455;-65
2021/06/13 07:22:00;;;;;;;4.10;2.50;;;;;;;;;;5052203;28;20854;-65
2021/06/13 07:24:27;;;;;;;4.33;3.17;;;;;;;;;;5052849;28;20483;-65
2021/06/13 07:26:54;;;;;;;5.37;3.20;;;;;;;;;;5051518;28;20566;-65
2021/06/13 07:29:21;;;;;;;6.43;3.17;;;;;;;;;;5045545;28;20463;-64
2021/06/13 07:31:50;;;;;;;4.97;3.30;;;;;;;;;;5032663;28;20467;-64
2021/06/13 07:34:17;;;;;;;6.50;3.30;;;;;;;;;;5052172;28;20458;-65
2021/06/13 07:36:44;;;;;;;6.37;3.30;;;;;;;;;;5051962;28;20502;-66
2021/06/13 07:39:11;;;;;;;6.40;3.30;;;;;;;;;;5052255;28;20451;-66
2021/06/13 07:41:38;;;;;;;5.53;3.67;;;;;;;;;;5052352;28;20451;-65
2021/06/13 07:44:06;;;;;;;5.80;3.17;;;;;;;;;;5036574;28;20449;-65
2021/06/13 07:46:34;;;;;;;3.73;2.97;;;;;;;;;;5031245;28;20480;-65
2021/06/13 07:49:02;;;;;;;5.73;3.50;;;;;;;;;;5047625;28;20951;-65
2021/06/13 07:51:29;;;;;;;6.20;3.27;;;;;;;;;;5052356;28;20451;-66
2021/06/13 07:53:57;;;;;;;6.17;3.30;;;;;;;;;;5037950;28;20828;-65
2021/06/13 07:56:24;;;;;;;3.60;2.90;;;;;;;;;;5034197;28;20449;-65
2021/06/13 07:58:51;;;;;;;3.77;2.70;;;;;;;;;;5045151;28;20479;-65
2021/06/13 08:01:18;;;;;;;4.93;3.00;;;;;;;;;;5051977;28;20462;-64
2021/06/13 08:03:45;;;;;;;4.53;2.90;;;;;;;;;;5051667;28;20855;-66
2021/06/13 08:06:13;;;;;;;6.67;3.90;;;;;;;;;;5034805;28;20477;-65
2021/06/13 08:08:40;;;;;;;7.33;3.30;;;;;;;;;;5042744;28;20447;-65
2021/06/13 08:11:08;;;;;;;6.50;3.27;;;;;;;;;;5050992;28;20452;-65
2021/06/13 08:13:35;;;;;;;5.70;3.33;;;;;;;;;;5051466;28;20475;-65
2021/06/13 08:16:02;;;;;;;6.03;3.60;;;;;;;;;;5050877;28;20778;-65
2021/06/13 08:18:30;;;;;;;5.10;3.20;;;;;;;;;;5051529;28;20821;-65
2021/06/13 08:20:57;;;;;;;7.67;3.50;;;;;;;;;;5051801;28;20539;-65
2021/06/13 08:23:25;;;;;;;7.13;3.67;;;;;;;;;;5051171;28;20476;-65
2021/06/13 08:25:52;;;;;;;5.47;3.10;;;;;;;;;;5050428;28;20456;-66
2021/06/13 08:28:19;;;;;;;4.37;3.10;;;;;;;;;;5051559;28;20452;-65
2021/06/13 08:30:46;;;;;;;4.80;3.33;;;;;;;;;;5051756;28;20444;-66
2021/06/13 08:33:14;;;;;;;8.53;3.70;;;;;;;;;;5050900;28;20482;-65
2021/06/13 08:35:41;;;;;;;4.57;3.50;;;;;;;;;;5050900;28;20485;-65
2021/06/13 08:38:08;;;;;;;5.23;3.43;;;;;;;;;;5049242;28;20943;-66
2021/06/13 08:40:37;;;;;;;3.93;3.13;;;;;;;;;;5051761;28;20477;-65
2021/06/13 08:43:04;;;;;;;4.27;3.17;;;;;;;;;;5050526;28;20546;-65
2021/06/13 08:45:32;;;;;;;6.07;2.87;;;;;;;;;;5050762;28;20649;-66
2021/06/13 08:48:00;;;;;;;7.33;3.50;;;;;;;;;;5050480;28;20491;-65
2021/06/13 08:50:28;;;;;;;6.50;4.00;;;;;;;;;;5050757;28;20458;-66
2021/06/13 08:52:55;;;;;;;6.00;3.67;;;;;;;;;;5050391;28;20979;-65
2021/06/13 08:55:23;;;;;;;5.80;3.33;;;;;;;;;;5050026;28;20951;-65
2021/06/13 08:57:52;;;;;;;4.93;3.50;;;;;;;;;;5052189;28;20452;-65
2021/06/13 09:00:21;;;;;;;5.37;3.77;;;;;;;;;;5035702;28;20449;-66
2021/06/13 09:02:48;;;;;;;6.50;3.50;;;;;;;;;;5035223;28;20464;-65
2021/06/13 09:05:18;;;;;;;7.33;4.00;;;;;;;;;;5035141;28;20452;-66
2021/06/13 09:07:51;;;;;;;4.17;3.57;;;;;;;;;;5045664;28;20541;-66
2021/06/13 09:10:19;;;;;;;4.70;3.97;;;;;;;;;;5054038;28;20456;-66
2021/06/13 09:12:47;;;;;;;6.23;3.50;;;;;;;;;;5054678;28;20979;-66
2021/06/13 09:15:16;;;;;;;5.97;3.87;;;;;;;;;;5054480;28;20958;-66
2021/06/13 09:17:44;;;;;;;4.87;3.40;;;;;;;;;;5054818;28;20938;-66
2021/06/13 09:20:19;;;;;;;8.90;3.77;;;;;;;;;;5054119;28;20455;-65
2021/06/13 09:23:06;;;;;;;4.90;3.50;;;;;;;;;;5054792;28;21063;-66
2021/06/13 09:25:33;;;;;;;5.83;3.67;;;;;;;;;;5052370;28;20890;-66
2021/06/13 09:28:08;;;;;;;5.67;3.77;;;;;;;;;;5054353;28;20854;-65
2021/06/13 09:30:37;;;;;;;5.63;3.03;;;;;;;;;;5055052;28;20450;-65
2021/06/13 09:33:05;;;;;;;7.07;4.17;;;;;;;;;;5054706;28;20859;-66
2021/06/13 09:35:32;;;;;;;4.10;3.20;;;;;;;;;;5053525;28;20456;-66
2021/06/13 09:38:06;;;;;;;5.43;3.37;;;;;;;;;;5054658;28;20475;-66
2021/06/13 09:40:33;;;;;;;7.90;3.17;;;;;;;;;;5054107;28;20456;-66
2021/06/13 09:43:10;;;;;;;6.03;3.67;;;;;;;;;;5050259;28;20494;-66
2021/06/13 09:45:39;;;;;;;5.80;3.70;;;;;;;;;;5054305;28;20927;-66
2021/06/13 09:48:06;;;;;;;7.77;4.53;;;;;;;;;;5054118;28;20491;-66
2021/06/13 09:50:37;;;;;;;5.47;3.30;;;;;;;;;;5054813;28;20942;-65
2021/06/13 09:53:19;;;;;;;4.43;3.73;;;;;;;;;;5055100;28;20475;-66
2021/06/13 09:55:46;;;;;;;5.00;3.20;;;;;;;;;;5053457;28;20443;-65
2021/06/13 09:58:14;;;;;;;6.37;3.13;;;;;;;;;;5054492;28;20454;-65
2021/06/13 10:00:43;;;;;;;5.90;4.00;;;;;;;;;;5053831;28;20550;-65
2021/06/13 10:03:22;;;;;;;6.63;4.20;;;;;;;;;;5053954;28;20471;-65
2021/06/13 10:05:55;;;;;;;5.00;3.73;;;;;;;;;;5053338;28;20452;-64
2021/06/13 10:08:23;;;;;;;4.20;3.57;;;;;;;;;;5053450;28;20495;-65
2021/06/13 10:10:51;;;;;;;4.77;3.67;;;;;;;;;;5053993;28;20456;-64
2021/06/13 10:13:18;;;;;;;4.43;3.43;;;;;;;;;;5054395;28;20506;-65
2021/06/13 10:15:50;;;;;;;3.90;3.23;;;;;;;;;;5052789;28;20857;-65
2021/06/13 10:18:19;;;;;;;6.23;4.00;;;;;;;;;;5053578;28;20984;-66
2021/06/13 10:20:47;;;;;;;8.67;4.53;;;;;;;;;;5053241;28;20512;-63
2021/06/13 10:23:14;;;;;;;9.50;4.90;;;;;;;;;;5035422;28;20484;-64
2021/06/13 10:25:41;;;;;;;7.60;4.70;;;;;;;;;;5044123;28;21021;-63
2021/06/13 10:28:08;;;;;;;8.20;4.47;;;;;;;;;;5053468;28;20488;-62
2021/06/13 10:30:35;;;;;;;6.70;4.20;;;;;;;;;;5053420;28;20448;-63
2021/06/13 10:33:04;;;;;;;12.73;6.57;;;;;;;;;;5053619;28;20464;-63
2021/06/13 10:35:33;;;;;;;7.53;4.87;;;;;;;;;;5043822;28;20451;-63
2021/06/13 10:38:01;;;;;;;13.97;12.07;;;;;;;;;;5053562;28;20456;-64
2021/06/13 10:40:28;;;;;;;9.23;7.20;;;;;;;;;;5052773;28;20513;-63
2021/06/13 10:42:55;;;;;;;9.27;5.57;;;;;;;;;;5043706;28;20824;-63
2021/06/13 10:45:30;;;;;;;10.00;7.40;;;;;;;;;;5049720;28;20952;-62
2021/06/13 10:48:06;;;;;;;7.67;4.77;;;;;;;;;;5033651;28;20467;-63
2021/06/13 10:50:34;;;;;;;6.17;4.40;;;;;;;;;;5048964;28;20463;-62
2021/06/13 10:53:03;;;;;;;7.60;4.43;;;;;;;;;;5044335;28;20502;-61
2021/06/13 10:55:45;;;;;;;5.43;3.83;;;;;;;;;;5051437;28;20946;-63
2021/06/13 10:58:12;;;;;;;7.33;4.33;;;;;;;;;;5051679;28;20547;-63
2021/06/13 11:00:39;;;;;;;8.10;4.03;;;;;;;;;;5051406;28;20465;-63
2021/06/13 11:03:08;;;;;;;6.70;3.50;;;;;;;;;;5034138;28;20473;-62
2021/06/13 11:05:39;;;;;;;8.50;4.10;;;;;;;;;;5042355;28;21069;-62
2021/06/13 11:08:06;;;;;;;7.30;4.13;;;;;;;;;;5052949;28;20533;-62
2021/06/13 11:10:34;;;;;;;6.40;4.20;;;;;;;;;;5051720;28;20451;-62
2021/06/13 11:13:02;;;;;;;4.77;4.07;;;;;;;;;;5052404;28;20847;-62
2021/06/13 11:15:47;;;;;;;6.30;3.33;;;;;;;;;;5051714;28;20946;-62
2021/06/13 11:18:20;;;;;;;6.80;3.87;;;;;;;;;;5053014;28;20451;-62
2021/06/13 11:20:49;;;;;;;6.27;4.23;;;;;;;;;;5051689;28;20459;-62
2021/06/13 11:23:37;;;;;;;7.73;3.83;;;;;;;;;;5051326;28;20494;-62
2021/06/13 11:26:05;;;;;;;3.67;3.10;;;;;;;;;;5052122;28;20447;-62
2021/06/13 11:28:48;;;;;;;4.03;3.63;;;;;;;;;;5053004;28;20476;-62
2021/06/13 11:31:19;;;;;;;5.10;3.67;;;;;;;;;;5051866;28;20804;-62
2021/06/13 11:33:49;;;;;;;6.93;3.73;;;;;;;;;;5052525;28;20468;-62
2021/06/13 11:36:28;;;;;;;5.40;3.60;;;;;;;;;;5051169;28;20448;-62
2021/06/13 11:39:16;;;;;;;5.60;3.60;;;;;;;;;;5052331;28;20436;-62
2021/06/13 11:41:44;;;;;;;6.73;3.90;;;;;;;;;;5032898;28;20495;-63
2021/06/13 11:44:14;;;;;;;5.60;3.57;;;;;;;;;;5032426;28;20456;-62
2021/06/13 11:46:42;;;;;;;6.20;3.47;;;;;;;;;;5032715;28;20455;-62
2021/06/13 11:49:13;;;;;;;6.30;3.57;;;;;;;;;;5032329;28;20484;-62
2021/06/13 11:51:49;;;;;;;8.53;3.70;;;;;;;;;;5052065;28;20475;-62
2021/06/13 11:54:30;;;;;;;4.20;3.20;;;;;;;;;;5052310;28;20443;-62
2021/06/13 11:56:58;;;;;;;5.63;3.40;;;;;;;;;;5048616;28;20819;-63
2021/06/13 11:59:26;;;;;;;7.17;3.57;;;;;;;;;;5051862;28;20482;-62
2021/06/13 12:01:54;;;;;;;5.10;3.60;;;;;;;;;;5031888;28;20979;-63
2021/06/13 12:04:23;;;;;;;5.60;3.40;;;;;;;;;;5032460;28;20450;-68
2021/06/13 12:06:51;;;;;;;9.53;3.77;;;;;;;;;;5051115;28;20478;-64
2021/06/13 12:09:18;;;;;;;11.93;4.37;;;;;;;;;;5049807;28;20853;-67
2021/06/13 12:11:46;;;;;;;6.10;3.30;;;;;;;;;;5050303;28;20455;-66
2021/06/13 12:14:27;;;;;;;5.00;3.40;;;;;;;;;;5050732;28;20474;-66
2021/06/13 12:16:55;;;;;;;5.00;3.40;;;;;;;;;;5051064;28;20909;-65
2021/06/13 12:19:32;;;;;;;5.33;3.53;;;;;;;;;;5050904;28;20819;-65
2021/06/13 12:22:20;;;;;;;5.30;3.87;;;;;;;;;;5051075;28;21012;-65
2021/06/13 12:27:33;;;;;;;5.47;3.70;;;;;;;;;;5051420;28;20841;-65
2021/06/13 12:30:01;;;;;;;6.30;4.03;;;;;;;;;;5052178;28;20451;-65
2021/06/13 12:32:30;;;;;;;7.03;4.37;;;;;;;;;;5051766;28;20476;-65
2021/06/13 12:35:07;;;;;;;3.70;2.93;;;;;;;;;;5051822;28;20452;-65
2021/06/13 12:37:34;;;;;;;7.03;4.00;;;;;;;;;;5050866;28;20447;-66
2021/06/13 12:40:02;;;;;;;8.13;3.57;;;;;;;;;;5051748;28;20458;-64
2021/06/13 12:42:30;;;;;;;4.93;4.00;;;;;;;;;;5051611;28;20467;-65
2021/06/13 12:45:01;;;;;;;5.47;4.30;;;;;;;;;;5051852;28;20452;-65
2021/06/13 12:47:28;;;;;;;6.30;4.30;;;;;;;;;;5050681;28;20539;-65
2021/06/13 12:49:57;;;;;;;6.17;4.20;;;;;;;;;;5051594;28;20454;-65
2021/06/13 12:52:26;;;;;;;6.00;3.87;;;;;;;;;;5051556;28;20483;-65
2021/06/13 12:54:57;;;;;;;5.80;4.20;;;;;;;;;;5051243;28;20455;-65
2021/06/13 12:57:25;;;;;;;4.33;3.53;;;;;;;;;;5050590;28;20462;-65
2021/06/13 12:59:52;;;;;;;5.77;4.47;;;;;;;;;;5051330;28;20448;-64
2021/06/13 13:02:20;;;;;;;7.40;3.90;;;;;;;;;;5051219;28;20471;-65
2021/06/13 13:04:48;;;;;;;7.60;4.33;;;;;;;;;;5051425;28;20459;-66
2021/06/13 13:07:26;;;;;;;5.43;4.00;;;;;;;;;;5051003;28;20448;-65
2021/06/13 13:10:09;;;;;;;4.47;4.00;;;;;;;;;;5051239;28;20439;-64
2021/06/13 13:12:37;;;;;;;6.87;4.87;;;;;;;;;;5038729;28;20476;-64
2021/06/13 13:15:11;;;;;;;4.27;3.77;;;;;;;;;;5051746;28;20452;-65
2021/06/13 13:17:38;;;;;;;6.07;4.23;;;;;;;;;;5050994;28;20451;-65
2021/06/13 13:20:19;;;;;;;4.13;3.73;;;;;;;;;;5052032;28;20816;-64
2021/06/13 13:22:47;;;;;;;5.20;4.17;;;;;;;;;;5051147;28;20475;-65
2021/06/13 13:25:16;;;;;;;7.50;4.33;;;;;;;;;;5051092;28;20443;-65
2021/06/13 13:27:44;;;;;;;5.77;3.80;;;;;;;;;;5050324;28;20994;-65
2021/06/13 13:30:26;;;;;;;5.83;4.13;;;;;;;;;;5051006;28;20451;-65
2021/06/13 13:32:54;;;;;;;6.30;3.87;;;;;;;;;;5048545;28;20475;-65
2021/06/13 13:35:27;;;;;;;7.43;4.13;;;;;;;;;;5050043;28;20935;-65
2021/06/13 13:37:54;;;;;;;6.50;3.97;;;;;;;;;;5050718;28;20428;-65
2021/06/13 13:40:23;;;;;;;5.67;3.97;;;;;;;;;;5050814;28;20967;-65
2021/06/13 13:43:00;;;;;;;4.43;3.67;;;;;;;;;;5050889;28;20464;-65
2021/06/13 13:45:28;;;;;;;5.60;4.43;;;;;;;;;;5054034;28;20455;-65
2021/06/13 13:47:55;;;;;;;5.43;4.00;;;;;;;;;;5054529;28;20475;-65
2021/06/13 13:50:34;;;;;;;6.47;4.20;;;;;;;;;;5054954;28;20600;-65
2021/06/13 13:53:13;;;;;;;4.00;3.57;;;;;;;;;;5055233;28;20467;-65
2021/06/13 13:55:49;;;;;;;5.20;3.67;;;;;;;;;;5054013;28;20443;-65
2021/06/13 13:58:17;;;;;;;5.80;4.03;;;;;;;;;;5054223;28;20444;-65
2021/06/13 14:00:44;;;;;;;4.90;4.00;;;;;;;;;;5054630;28;20455;-65
2021/06/13 14:03:12;;;;;;;6.17;4.10;;;;;;;;;;5054477;28;20984;-65
2021/06/13 14:05:39;;;;;;;4.37;3.40;;;;;;;;;;5054023;28;20447;-65
2021/06/13 14:08:06;;;;;;;7.70;3.63;;;;;;;;;;5054217;28;20857;-65
2021/06/13 14:10:33;;;;;;;5.30;4.23;;;;;;;;;;5054220;28;20469;-65
2021/06/13 14:13:02;;;;;;;11.50;4.50;;;;;;;;;;5054052;28;20467;-65
2021/06/13 14:15:29;;;;;;;7.40;3.90;;;;;;;;;;5053679;28;20471;-66
2021/06/13 14:17:56;;;;;;;7.17;3.87;;;;;;;;;;5054123;28;20447;-65
2021/06/13 14:20:23;;;;;;;5.27;3.73;;;;;;;;;;5054019;28;20999;-65
2021/06/13 14:22:53;;;;;;;5.33;4.10;;;;;;;;;;5053481;28;20487;-65
2021/06/13 14:25:20;;;;;;;5.63;3.77;;;;;;;;;;5053740;28;20444;-65
2021/06/13 14:27:47;;;;;;;5.27;4.73;;;;;;;;;;5053713;28;20792;-65
2021/06/13 14:30:16;;;;;;;4.90;3.87;;;;;;;;;;5054007;28;20456;-65
2021/06/13 14:32:44;;;;;;;5.10;4.47;;;;;;;;;;5053870;28;20472;-65
2021/06/13 14:35:11;;;;;;;4.70;4.00;;;;;;;;;;5053977;28;20450;-65
2021/06/13 14:37:38;;;;;;;5.57;3.90;;;;;;;;;;5053158;28;20451;-65
2021/06/13 14:40:07;;;;;;;4.40;3.70;;;;;;;;;;5053867;28;20447;-65
2021/06/13 14:42:34;;;;;;;6.17;4.00;;;;;;;;;;5053838;28;20472;-64
2021/06/13 14:45:01;;;;;;;4.67;4.20;;;;;;;;;;5047752;28;20452;-65
2021/06/13 14:47:29;;;;;;;5.33;3.97;;;;;;;;;;5032983;28;20456;-65
2021/06/13 14:49:57;;;;;;;6.07;4.00;;;;;;;;;;5033475;28;21007;-65
2021/06/13 14:52:24;;;;;;;5.67;3.93;;;;;;;;;;5034124;28;20472;-65
2021/06/13 14:54:51;;;;;;;7.33;4.10;;;;;;;;;;5033012;28;20449;-65